createdAt,value
2022-10-19T00:01:19.808Z,102556.84
2022-10-19T00:06:32.139Z,102527.22
2022-10-19T00:09:09.780Z,102520.28
2022-10-19T00:11:40.557Z,102513.31
2022-10-19T00:14:09.057Z,102509.81
2022-10-19T00:16:38.868Z,102504.59
2022-10-19T00:19:09.307Z,102502.00
2022-10-19T00:21:36.491Z,102495.00
2022-10-19T00:24:03.548Z,102492.44
2022-10-19T00:26:30.486Z,102472.41
2022-10-19T00:28:58.174Z,102475.88
2022-10-19T00:31:26.493Z,102471.53
2022-10-19T00:33:55.707Z,102473.28
2022-10-19T00:36:25.688Z,102462.81
2022-10-19T00:38:53.605Z,102473.25
2022-10-19T00:41:22.257Z,102473.25
2022-10-19T00:44:00.727Z,102475.88
2022-10-19T00:46:31.029Z,102472.41
2022-10-19T00:49:09.849Z,102453.22
2022-10-19T00:51:41.889Z,102474.13
2022-10-19T00:54:09.757Z,102463.69
2022-10-19T00:56:41.230Z,102461.94
2022-10-19T00:59:10.107Z,102448.03
2022-10-19T01:01:37.408Z,102459.34
2022-10-19T01:04:05.870Z,102442.81
2022-10-19T01:06:34.338Z,102444.56
2022-10-19T01:09:01.268Z,102436.72
2022-10-19T01:11:39.365Z,102444.56
2022-10-19T01:14:26.010Z,102453.22
2022-10-19T01:17:11.545Z,102450.63
2022-10-19T01:19:57.518Z,102449.75
2022-10-19T01:22:43.967Z,102454.09
2022-10-19T01:25:21.899Z,102454.09
2022-10-19T01:28:09.092Z,102441.91
2022-10-19T01:30:45.829Z,102447.16
2022-10-19T01:33:24.947Z,102448.00
2022-10-19T01:36:07.456Z,102455.81
2022-10-19T01:38:46.138Z,102449.78
2022-10-19T01:41:21.218Z,102439.31
2022-10-19T01:44:08.350Z,102440.19
2022-10-19T01:46:44.680Z,102439.34
2022-10-19T01:49:21.402Z,102430.63
2022-10-19T01:51:55.720Z,102425.38
2022-10-19T01:54:26.867Z,102438.44
2022-10-19T01:56:56.558Z,102434.09
2022-10-19T01:59:24.117Z,102422.78
2022-10-19T02:01:53.751Z,102420.16
2022-10-19T02:04:24.202Z,102420.19
2022-10-19T02:06:53.037Z,102415.84
2022-10-19T02:09:21.038Z,102413.22
2022-10-19T02:11:57.038Z,102412.34
2022-10-19T02:14:30.636Z,102409.75
2022-10-19T02:17:05.537Z,102414.13
2022-10-19T02:19:32.358Z,102401.94
2022-10-19T02:22:00.090Z,102395.84
2022-10-19T02:24:26.971Z,102383.66
2022-10-19T02:26:55.168Z,102396.72
2022-10-19T02:29:22.692Z,102390.63
2022-10-19T02:31:49.782Z,102377.59
2022-10-19T02:34:16.745Z,102375.00
2022-10-19T02:36:43.767Z,102363.69
2022-10-19T02:39:10.758Z,102372.38
2022-10-19T02:41:50.171Z,102363.66
2022-10-19T02:44:26.308Z,102352.38
2022-10-19T02:47:02.557Z,102347.16
2022-10-19T02:49:30.888Z,102351.50
2022-10-19T02:52:01.809Z,102345.44
2022-10-19T02:54:29.717Z,102331.50
2022-10-19T02:56:57.367Z,102329.78
2022-10-19T02:59:25.108Z,102337.59
2022-10-19T03:01:52.708Z,102328.03
2022-10-19T03:04:19.580Z,102328.88
2022-10-19T03:06:46.448Z,102306.28
2022-10-19T03:09:13.309Z,102317.59
2022-10-19T03:11:40.127Z,102319.34
2022-10-19T03:14:06.957Z,102307.13
2022-10-19T03:16:33.807Z,102324.53
2022-10-19T03:19:00.661Z,102328.88
2022-10-19T03:21:27.527Z,102325.41
2022-10-19T03:23:54.727Z,102315.84
2022-10-19T03:26:21.759Z,102320.19
2022-10-19T03:28:48.597Z,102307.16
2022-10-19T03:31:15.428Z,102301.94
2022-10-19T03:33:42.314Z,102294.13
2022-10-19T03:36:21.768Z,102298.44
2022-10-19T03:38:59.598Z,102282.78
2022-10-19T03:41:29.347Z,102284.53
2022-10-19T03:43:57.397Z,102285.38
2022-10-19T03:46:25.079Z,102280.19
2022-10-19T03:48:52.168Z,102285.41
2022-10-19T03:51:23.658Z,102285.38
2022-10-19T03:53:58.171Z,102282.81
2022-10-19T03:56:27.179Z,102281.94
2022-10-19T03:58:55.731Z,102283.66
2022-10-19T04:01:25.599Z,102279.31
2022-10-19T04:04:03.823Z,102285.41
2022-10-19T04:06:34.768Z,102287.16
2022-10-19T04:09:02.351Z,102288.88
2022-10-19T04:11:30.862Z,102284.53
2022-10-19T04:13:59.067Z,102281.91
2022-10-19T04:16:28.167Z,102273.19
2022-10-19T04:18:55.431Z,102277.53
2022-10-19T04:21:23.171Z,102277.56
2022-10-19T04:23:52.494Z,102262.78
2022-10-19T04:26:20.036Z,102262.78
2022-10-19T04:28:47.278Z,102260.16
2022-10-19T04:31:14.178Z,102275.81
2022-10-19T04:33:41.880Z,102274.06
2022-10-19T04:36:11.318Z,102265.38
2022-10-19T04:38:39.510Z,102252.31
2022-10-19T04:41:13.108Z,102259.28
2022-10-19T04:43:40.008Z,102264.47
2022-10-19T04:46:10.263Z,102262.75
2022-10-19T04:48:38.879Z,102264.47
2022-10-19T04:51:06.657Z,102259.28
2022-10-19T04:53:34.815Z,102257.50
2022-10-19T04:56:06.208Z,102255.75
2022-10-19T04:58:33.547Z,102254.91
2022-10-19T05:01:07.283Z,102247.06
2022-10-19T05:03:34.149Z,102243.59
2022-10-19T05:06:01.134Z,102231.41
2022-10-19T05:08:27.921Z,102233.16
2022-10-19T05:10:54.750Z,102232.28
2022-10-19T05:13:21.548Z,102227.94
2022-10-19T05:15:58.135Z,102227.06
2022-10-19T05:18:25.066Z,102218.34
2022-10-19T05:20:51.938Z,102220.97
2022-10-19T05:23:18.791Z,102226.19
2022-10-19T05:25:45.739Z,102220.97
2022-10-19T05:28:12.631Z,102221.84
2022-10-19T05:30:39.637Z,102217.50
2022-10-19T05:33:06.526Z,102200.94
2022-10-19T05:35:33.361Z,102196.59
2022-10-19T05:38:00.203Z,102199.19
2022-10-19T05:40:27.667Z,102193.13
2022-10-19T05:42:57.076Z,102200.94
2022-10-19T05:45:23.911Z,102194.88
2022-10-19T05:47:50.746Z,102193.13
2022-10-19T05:50:17.788Z,102189.66
2022-10-19T05:52:44.651Z,102179.22
2022-10-19T05:55:11.530Z,102184.44
2022-10-19T05:57:38.485Z,102180.97
2022-10-19T06:00:05.823Z,102160.09
2022-10-19T06:02:32.673Z,102168.75
2022-10-19T06:04:59.458Z,102166.16
2022-10-19T06:07:26.328Z,102161.81
2022-10-19T06:09:53.191Z,102168.75
2022-10-19T06:12:24.256Z,102167.00
2022-10-19T06:14:52.190Z,102163.56
2022-10-19T06:17:19.067Z,102177.44
2022-10-19T06:19:45.877Z,102160.91
2022-10-19T06:22:12.677Z,102162.66
2022-10-19T06:24:40.541Z,102159.16
2022-10-19T06:27:08.829Z,102158.28
2022-10-19T06:29:36.012Z,102162.66
2022-10-19T06:32:02.869Z,102157.41
2022-10-19T06:34:29.734Z,102166.97
2022-10-19T06:36:56.605Z,102159.16
2022-10-19T06:39:23.447Z,102170.41
2022-10-19T06:41:50.347Z,102160.03
2022-10-19T06:44:17.168Z,102153.88
2022-10-19T06:46:44.019Z,102171.31
2022-10-19T06:49:13.851Z,102169.53
2022-10-19T06:51:41.078Z,102165.16
2022-10-19T06:54:08.606Z,102165.16
2022-10-19T06:56:35.538Z,102159.88
2022-10-19T06:59:02.814Z,102154.66
2022-10-19T07:01:33.436Z,102149.38
2022-10-19T07:04:03.269Z,102151.13
2022-10-19T07:06:30.299Z,102152.84
2022-10-19T07:08:57.348Z,102147.59
2022-10-19T07:11:24.283Z,102146.69
2022-10-19T07:13:53.060Z,102140.56
2022-10-19T07:16:21.764Z,102129.22
2022-10-19T07:18:51.366Z,102117.00
2022-10-19T07:21:20.283Z,102117.81
2022-10-19T07:23:48.112Z,102100.41
2022-10-19T07:26:17.380Z,102125.59
2022-10-19T07:28:46.636Z,102106.44
2022-10-19T07:31:18.160Z,102110.72
2022-10-19T07:33:45.329Z,102088.97
2022-10-19T07:36:14.071Z,102101.03
2022-10-19T07:38:41.275Z,102082.78
2022-10-19T07:41:12.890Z,102083.56
2022-10-19T07:43:40.781Z,102094.72
2022-10-19T07:46:12.865Z,102095.53
2022-10-19T07:48:39.978Z,102098.88
2022-10-19T07:51:08.669Z,102103.13
2022-10-19T07:53:36.496Z,102096.09
2022-10-19T07:56:05.606Z,102095.13
2022-10-19T07:58:32.698Z,102087.28
2022-10-19T08:01:01.691Z,102095.06
2022-10-19T08:04:14.247Z,102092.44
2022-10-19T08:06:17.981Z,102093.19
2022-10-19T08:08:46.530Z,102087.13
2022-10-19T08:11:16.530Z,102101.09
2022-10-19T08:13:43.791Z,102101.03
2022-10-19T08:16:20.886Z,102094.91
2022-10-19T08:18:47.784Z,102088.78
2022-10-19T08:21:14.569Z,102087.03
2022-10-19T08:23:41.665Z,102098.28
2022-10-19T08:26:08.586Z,102078.22
2022-10-19T08:28:35.401Z,102085.94
2022-10-19T08:31:11.739Z,102079.78
2022-10-19T08:33:38.651Z,102082.31
2022-10-19T08:36:07.300Z,102091.88
2022-10-19T08:38:36.403Z,102086.59
2022-10-19T08:41:13.849Z,102083.06
2022-10-19T08:43:55.611Z,102081.19
2022-10-19T08:46:30.387Z,102068.09
2022-10-19T08:48:57.296Z,102067.13
2022-10-19T08:51:24.769Z,102053.09
2022-10-19T08:53:55.041Z,102052.94
2022-10-19T08:56:50.077Z,102049.44
2022-10-19T08:59:36.496Z,102038.91
2022-10-19T09:02:14.347Z,102031.84
2022-10-19T09:04:47.932Z,102043.09
2022-10-19T09:07:21.731Z,102034.31
2022-10-19T09:09:59.280Z,102036.91
2022-10-19T09:12:52.877Z,102042.84
2022-10-19T09:15:36.476Z,102032.28
2022-10-19T09:18:03.420Z,102045.25
2022-10-19T09:20:38.518Z,102046.88
2022-10-19T09:23:13.591Z,102045.03
2022-10-19T09:25:41.156Z,102049.22
2022-10-19T09:28:25.707Z,102052.63
2022-10-19T09:30:59.031Z,102045.47
2022-10-19T09:33:34.406Z,102043.44
2022-10-19T09:36:05.030Z,102038.81
2022-10-19T09:38:31.988Z,102030.72
2022-10-19T09:41:08.066Z,102031.25
2022-10-19T09:44:43.836Z,102030.59
2022-10-19T09:47:29.132Z,102016.31
2022-10-19T09:50:08.719Z,102023.88
2022-10-19T09:52:39.150Z,102003.66
2022-10-19T09:55:19.817Z,102007.09
2022-10-19T09:57:49.312Z,102008.72
2022-10-19T10:00:22.608Z,101996.34
2022-10-19T10:02:52.806Z,102009.28
2022-10-19T10:05:26.052Z,102002.78
2022-10-19T10:07:55.509Z,102013.91
2022-10-19T10:10:30.507Z,102015.44
2022-10-19T10:13:00.263Z,102014.44
2022-10-19T10:15:35.536Z,102016.06
2022-10-19T10:18:03.151Z,101998.41
2022-10-19T10:20:32.676Z,102006.81
2022-10-19T10:23:03.082Z,101990.66
2022-10-19T10:25:33.246Z,102002.56
2022-10-19T10:28:11.486Z,102000.56
2022-10-19T10:30:38.349Z,101998.72
2022-10-19T10:33:15.866Z,101988.06
2022-10-19T10:35:58.038Z,101996.84
2022-10-19T10:38:29.062Z,101988.13
2022-10-19T10:41:01.296Z,101984.72
2022-10-19T10:43:32.391Z,101990.03
2022-10-19T10:46:16.865Z,101990.22
2022-10-19T10:48:53.450Z,101990.09
2022-10-19T10:51:29.330Z,101984.81
2022-10-19T10:54:09.731Z,101983.03
2022-10-19T10:56:40.595Z,101975.16
2022-10-19T10:59:22.208Z,101960.34
2022-10-19T11:02:02.647Z,101950.88
2022-10-19T11:04:37.042Z,101941.78
2022-10-19T11:07:17.395Z,101938.13
2022-10-19T11:09:51.150Z,101936.16
2022-10-19T11:12:24.106Z,101925.78
2022-10-19T11:15:02.197Z,101923.94
2022-10-19T11:17:33.414Z,101925.66
2022-10-19T11:20:00.682Z,101922.44
2022-10-19T11:22:28.892Z,101915.88
2022-10-19T11:25:16.324Z,101907.66
2022-10-19T11:27:51.808Z,101901.00
2022-10-19T11:30:21.986Z,101892.63
2022-10-19T11:33:06.892Z,101889.19
2022-10-19T11:35:44.645Z,101874.25
2022-10-19T11:38:30.436Z,101872.97
2022-10-19T11:41:18.144Z,101867.28
2022-10-19T11:43:56.277Z,101871.19
2022-10-19T11:46:33.268Z,101849.91
2022-10-19T11:49:09.922Z,101859.31
2022-10-19T11:51:51.859Z,101850.03
2022-10-19T11:54:43.918Z,101830.28
2022-10-19T11:57:15.974Z,101824.84
2022-10-19T12:00:14.496Z,101812.53
2022-10-19T12:03:03.661Z,101811.13
2022-10-19T12:05:43.572Z,101797.16
2022-10-19T12:08:31.959Z,101789.63
2022-10-19T12:11:24.120Z,101795.53
2022-10-19T12:13:56.518Z,101786.94
2022-10-19T12:16:34.689Z,101783.50
2022-10-19T12:19:04.872Z,101765.09
2022-10-19T12:21:39.830Z,101757.34
2022-10-19T12:24:14.806Z,101772.16
2022-10-19T12:26:42.727Z,101758.09
2022-10-19T12:29:16.323Z,101760.91
2022-10-19T12:31:45.163Z,101747.03
2022-10-19T12:34:27.795Z,101745.44
2022-10-19T12:36:56.136Z,101739.13
2022-10-19T12:39:23.531Z,101733.59
2022-10-19T12:41:56.973Z,101723.97
2022-10-19T12:44:28.281Z,101716.38
2022-10-19T12:47:05.673Z,101708.75
2022-10-19T12:49:34.204Z,101696.81
2022-10-19T12:52:02.057Z,101688.59
2022-10-19T12:54:32.648Z,101680.97
2022-10-19T12:57:02.238Z,101683.91
2022-10-19T12:59:33.387Z,101676.16
2022-10-19T13:02:02.961Z,101672.00
2022-10-19T13:04:33.473Z,101686.03
2022-10-19T13:07:04.327Z,101675.13
2022-10-19T13:09:35.785Z,101662.34
2022-10-19T13:12:18.039Z,101667.72
2022-10-19T13:14:58.637Z,101661.06
2022-10-19T13:17:34.832Z,101640.00
2022-10-19T13:20:24.869Z,101640.00
2022-10-19T13:23:12.332Z,101613.56
2022-10-19T13:25:41.622Z,101620.53
2022-10-19T13:28:10.143Z,101623.25
2022-10-19T13:30:38.537Z,101615.50
2022-10-19T13:33:25.432Z,101605.97
2022-10-19T13:36:01.651Z,101610.31
2022-10-19T13:38:29.187Z,101602.53
2022-10-19T13:41:03.201Z,101586.81
2022-10-19T13:43:34.042Z,101586.84
2022-10-19T13:46:05.399Z,101584.13
2022-10-19T13:48:51.597Z,101584.97
2022-10-19T13:51:19.923Z,101582.28
2022-10-19T13:54:03.367Z,101585.94
2022-10-19T13:56:39.774Z,101578.94
2022-10-19T13:59:15.949Z,101585.94
2022-10-19T14:01:50.784Z,101577.13
2022-10-19T14:04:35.327Z,101571.00
2022-10-19T14:07:12.182Z,101570.94
2022-10-19T14:09:53.743Z,101559.84
2022-10-19T14:12:27.291Z,101546.47
2022-10-19T14:14:54.869Z,101540.31
2022-10-19T14:17:25.694Z,101547.13
2022-10-19T14:19:55.498Z,101550.66
2022-10-19T14:22:33.997Z,101546.25
2022-10-19T14:25:06.387Z,101550.56
2022-10-19T14:27:34.835Z,101552.28
2022-10-19T14:30:02.810Z,101542.38
2022-10-19T14:32:33.295Z,101532.75
2022-10-19T14:35:18.070Z,101532.63
2022-10-19T14:37:45.617Z,101521.97
2022-10-19T14:40:26.808Z,101525.19
2022-10-19T14:42:57.413Z,101531.97
2022-10-19T14:45:29.707Z,101522.94
2022-10-19T14:48:03.945Z,101517.38
2022-10-19T14:50:41.083Z,101518.78
2022-10-19T14:53:27.502Z,101516.59
2022-10-19T14:55:58.548Z,101505.66
2022-10-19T14:58:32.406Z,101507.91
2022-10-19T15:00:59.402Z,101501.44
2022-10-19T15:03:28.798Z,101497.03
2022-10-19T15:06:02.213Z,101498.03
2022-10-19T15:08:32.762Z,101486.03
2022-10-19T15:10:59.997Z,101478.53
2022-10-19T15:13:35.596Z,101478.75
2022-10-19T15:16:02.834Z,101478.19
2022-10-19T15:18:49.673Z,101471.88
2022-10-19T15:21:20.887Z,101476.00
2022-10-19T15:23:51.516Z,101484.13
2022-10-19T15:26:18.892Z,101472.13
2022-10-19T15:28:46.527Z,101460.78
2022-10-19T15:31:17.528Z,101462.75
2022-10-19T15:33:50.639Z,101455.16
2022-10-19T15:36:20.614Z,101438.72
2022-10-19T15:38:50.499Z,101433.00
2022-10-19T15:41:21.134Z,101420.50
2022-10-19T15:43:54.070Z,101431.56
2022-10-19T15:46:29.035Z,101426.56
2022-10-19T15:49:00.742Z,101408.78
2022-10-19T15:51:28.588Z,101426.63
2022-10-19T15:54:06.253Z,101426.22
2022-10-19T15:56:39.371Z,101432.66
2022-10-19T15:59:12.775Z,101433.81
2022-10-19T16:01:39.931Z,101432.41
2022-10-19T16:04:07.209Z,101434.22
2022-10-19T16:06:36.767Z,101433.63
2022-10-19T16:09:04.669Z,101424.22
2022-10-19T16:11:34.011Z,101414.94
2022-10-19T16:14:01.734Z,101423.88
2022-10-19T16:16:32.003Z,101423.13
2022-10-19T16:19:03.019Z,101409.47
2022-10-19T16:21:34.521Z,101400.97
2022-10-19T16:24:01.932Z,101400.13
2022-10-19T16:26:29.414Z,101402.88
2022-10-19T16:28:56.657Z,101378.72
2022-10-19T16:31:24.485Z,101397.94
2022-10-19T16:33:51.833Z,101390.25
2022-10-19T16:36:20.700Z,101384.28
2022-10-19T16:38:48.582Z,101386.13
2022-10-19T16:41:16.750Z,101387.22
2022-10-19T16:43:44.437Z,101384.66
2022-10-19T16:46:12.223Z,101378.84
2022-10-19T16:48:39.582Z,101379.66
2022-10-19T16:51:07.366Z,101368.34
2022-10-19T16:53:35.387Z,101360.78
2022-10-19T16:56:08.786Z,101357.25
2022-10-19T16:58:37.466Z,101346.97
2022-10-19T17:01:10.744Z,101343.44
2022-10-19T17:03:38.644Z,101336.56
2022-10-19T17:06:07.869Z,101334.94
2022-10-19T17:09:02.365Z,101335.91
2022-10-19T17:11:27.952Z,101330.75
2022-10-19T17:13:57.265Z,101332.53
2022-10-19T17:16:26.108Z,101336.25
2022-10-19T17:18:56.746Z,101328.44
2022-10-19T17:21:27.387Z,101323.31
2022-10-19T17:23:57.795Z,101330.28
2022-10-19T17:26:27.553Z,101323.50
2022-10-19T17:28:55.872Z,101324.34
2022-10-19T17:31:23.614Z,101328.72
2022-10-19T17:33:51.502Z,101321.81
2022-10-19T17:36:28.693Z,101329.69
2022-10-19T17:38:57.610Z,101335.75
2022-10-19T17:41:25.504Z,101332.25
2022-10-19T17:43:53.393Z,101332.25
2022-10-19T17:46:23.544Z,101335.69
2022-10-19T17:48:50.930Z,101324.41
2022-10-19T17:51:21.889Z,101321.78
2022-10-19T17:53:49.374Z,101306.19
2022-10-19T17:56:20.411Z,101318.38
2022-10-19T17:58:48.807Z,101334.91
2022-10-19T18:01:19.112Z,101323.56
2022-10-19T18:03:46.413Z,101299.06
2022-10-19T18:06:16.613Z,101309.53
2022-10-19T18:08:46.756Z,101328.72
2022-10-19T18:11:24.436Z,101328.88
2022-10-19T18:13:52.867Z,101347.88
2022-10-19T18:16:25.718Z,101330.44
2022-10-19T18:18:56.660Z,101327.00
2022-10-19T18:21:26.808Z,101314.84
2022-10-19T18:23:56.108Z,101337.34
2022-10-19T18:26:26.046Z,101330.44
2022-10-19T18:28:54.548Z,101327.91
2022-10-19T18:31:29.739Z,101311.38
2022-10-19T18:34:16.165Z,101288.63
2022-10-19T18:36:44.009Z,101302.59
2022-10-19T18:39:12.797Z,101304.28
2022-10-19T18:41:42.694Z,101285.22
2022-10-19T18:44:13.571Z,101285.09
2022-10-19T18:46:42.120Z,101280.84
2022-10-19T18:49:11.413Z,101272.19
2022-10-19T18:51:39.055Z,101279.97
2022-10-19T18:54:06.364Z,101293.09
2022-10-19T18:56:33.813Z,101283.47
2022-10-19T18:59:01.634Z,101266.19
2022-10-19T19:01:29.580Z,101273.78
2022-10-19T19:04:01.816Z,101265.97
2022-10-19T19:06:30.468Z,101279.91
2022-10-19T19:08:59.886Z,101280.91
2022-10-19T19:11:32.932Z,101280.84
2022-10-19T19:14:07.561Z,101288.72
2022-10-19T19:16:39.278Z,101276.38
2022-10-19T19:19:07.227Z,101267.66
2022-10-19T19:21:36.716Z,101265.97
2022-10-19T19:24:06.850Z,101264.31
2022-10-19T19:26:55.180Z,101274.81
2022-10-19T19:29:23.354Z,101277.44
2022-10-19T19:31:51.633Z,101263.47
2022-10-19T19:34:19.069Z,101274.91
2022-10-19T19:36:52.539Z,101267.97
2022-10-19T19:39:21.483Z,101259.25
2022-10-19T19:41:50.735Z,101273.94
2022-10-19T19:44:19.171Z,101273.09
2022-10-19T19:46:46.916Z,101262.72
2022-10-19T19:49:15.585Z,101250.41
2022-10-19T19:51:43.640Z,101251.38
2022-10-19T19:54:11.890Z,101243.47
2022-10-19T19:56:40.300Z,101229.72
2022-10-19T19:59:07.965Z,101238.28
2022-10-19T20:01:37.826Z,101221.81
2022-10-19T20:04:06.957Z,101223.59
2022-10-19T20:06:35.617Z,101223.72
2022-10-19T20:09:03.656Z,101224.75
2022-10-19T20:11:31.017Z,101226.56
2022-10-19T20:13:58.883Z,101225.78
2022-10-19T20:16:29.472Z,101230.16
2022-10-19T20:19:02.401Z,101228.44
2022-10-19T20:21:32.058Z,101212.78
2022-10-19T20:24:00.057Z,101210.16
2022-10-19T20:26:30.362Z,101204.25
2022-10-19T20:29:02.528Z,101195.47
2022-10-19T20:31:30.624Z,101202.19
2022-10-19T20:33:58.067Z,101199.56
2022-10-19T20:36:27.000Z,101195.13
2022-10-19T20:38:56.909Z,101181.25
2022-10-19T20:41:27.640Z,101176.66
2022-10-19T20:43:56.415Z,101177.50
2022-10-19T20:46:26.830Z,101173.13
2022-10-19T20:48:56.487Z,101172.22
2022-10-19T20:51:30.832Z,101173.88
2022-10-19T20:54:01.098Z,101171.34
2022-10-19T20:56:32.969Z,101187.81
2022-10-19T21:01:37.469Z,101194.75
2022-10-19T21:04:07.094Z,101178.19
2022-10-19T21:06:38.067Z,101190.25
2022-10-19T21:09:05.921Z,101190.22
2022-10-19T21:11:35.557Z,101188.41
2022-10-19T21:14:04.951Z,101181.34
2022-10-19T21:16:37.946Z,101172.75
2022-10-19T21:19:07.863Z,101178.72
2022-10-19T21:21:37.379Z,101180.44
2022-10-19T21:24:07.920Z,101178.63
2022-10-19T21:26:36.153Z,101173.38
2022-10-19T21:29:04.474Z,101169.88
2022-10-19T21:31:32.049Z,101162.81
2022-10-19T21:33:59.160Z,101151.41
2022-10-19T21:36:26.268Z,101139.16
2022-10-19T21:38:52.774Z,101141.69
2022-10-19T21:41:25.325Z,101143.41
2022-10-19T21:43:53.421Z,101124.50
2022-10-19T21:46:22.530Z,101153.78
2022-10-19T21:48:50.137Z,101141.50
2022-10-19T21:51:20.855Z,101137.03
2022-10-19T21:53:47.434Z,101123.13
2022-10-19T21:56:15.150Z,101118.56
2022-10-19T21:58:49.487Z,101124.66
2022-10-19T22:01:17.907Z,101132.59
2022-10-19T22:03:44.570Z,101125.44
2022-10-19T22:06:12.352Z,101134.97
2022-10-19T22:08:40.482Z,101119.19
2022-10-19T22:11:09.457Z,101133.09
2022-10-19T22:13:36.462Z,101140.84
2022-10-19T22:16:08.575Z,101132.19
2022-10-19T22:18:35.290Z,101128.53
2022-10-19T22:21:07.225Z,101123.00
2022-10-19T22:23:33.809Z,101125.47
2022-10-19T22:26:00.534Z,101115.72
2022-10-19T22:28:27.801Z,101121.69
2022-10-19T22:30:58.947Z,101118.19
2022-10-19T22:33:25.983Z,101108.56
2022-10-19T22:35:56.718Z,101110.38
2022-10-19T22:38:23.940Z,101116.44
2022-10-19T22:40:50.387Z,101105.16
2022-10-19T22:43:17.869Z,101105.88
2022-10-19T22:45:47.982Z,101114.59
2022-10-19T22:48:15.972Z,101115.50
2022-10-19T22:50:42.552Z,101105.88
2022-10-19T22:53:09.380Z,101099.69
2022-10-19T22:55:36.385Z,101081.47
2022-10-19T22:58:04.184Z,101073.44
2022-10-19T23:00:30.810Z,101063.81
2022-10-19T23:02:57.643Z,101063.81
2022-10-19T23:05:24.308Z,101078.63
2022-10-19T23:07:50.816Z,101066.38
2022-10-19T23:10:17.445Z,101075.03
2022-10-19T23:12:43.939Z,101076.88
2022-10-19T23:15:10.692Z,101076.88
2022-10-19T23:17:37.541Z,101090.84
2022-10-19T23:20:04.674Z,101087.22
2022-10-19T23:22:31.151Z,101078.56
2022-10-19T23:24:57.606Z,101069.78
2022-10-19T23:27:24.082Z,101071.56
2022-10-19T23:29:50.542Z,101055.81
2022-10-19T23:32:17.005Z,101059.28
2022-10-19T23:34:46.014Z,101045.31
2022-10-19T23:37:14.976Z,101035.78
2022-10-19T23:39:41.635Z,101037.50
2022-10-19T23:42:08.106Z,101034.88
2022-10-19T23:44:34.562Z,101026.22
2022-10-19T23:47:01.046Z,101019.34
2022-10-19T23:49:27.555Z,101016.75
2022-10-19T23:51:54.024Z,101010.63
2022-10-19T23:54:20.490Z,100999.38
2022-10-19T23:56:47.043Z,100994.09
2022-10-19T23:59:13.546Z,100989.81
